createdAt,value
2018-05-23T00:01:59.560Z,12.10
2018-05-23T00:04:26.976Z,11.50
2018-05-23T00:06:54.392Z,10.97
2018-05-23T00:09:21.812Z,11.57
2018-05-23T00:11:49.371Z,11.67
2018-05-23T00:14:16.795Z,12.57
2018-05-23T00:16:44.581Z,12.27
2018-05-23T00:19:11.987Z,11.47
2018-05-23T00:21:39.404Z,11.80
2018-05-23T00:24:06.843Z,11.33
2018-05-23T00:26:34.256Z,11.13
2018-05-23T00:29:01.672Z,11.73
2018-05-23T00:31:29.091Z,10.20
2018-05-23T00:33:56.504Z,12.13
2018-05-23T00:36:24.166Z,12.40
2018-05-23T00:38:51.703Z,11.00
2018-05-23T00:41:19.146Z,11.77
2018-05-23T00:43:46.753Z,12.10
2018-05-23T00:46:14.173Z,12.00
2018-05-23T00:48:41.588Z,11.40
2018-05-23T00:51:09.277Z,10.90
2018-05-23T00:53:36.684Z,10.93
2018-05-23T00:56:04.100Z,12.43
2018-05-23T00:58:31.524Z,12.87
2018-05-23T01:00:58.932Z,13.13
2018-05-23T01:03:26.384Z,12.50
2018-05-23T01:05:53.837Z,11.43
2018-05-23T01:08:21.412Z,11.53
2018-05-23T01:10:48.828Z,12.80
2018-05-23T01:13:16.235Z,12.77
2018-05-23T01:15:43.676Z,12.70
2018-05-23T01:18:11.401Z,11.13
2018-05-23T01:20:38.808Z,12.80
2018-05-23T01:23:06.261Z,13.30
2018-05-23T01:25:33.683Z,13.60
2018-05-23T01:28:01.096Z,13.40
2018-05-23T01:30:28.532Z,13.10
2018-05-23T01:32:55.972Z,12.90
2018-05-23T01:35:23.391Z,12.07
2018-05-23T01:37:50.804Z,13.27
2018-05-23T01:40:18.320Z,10.80
2018-05-23T01:42:45.729Z,11.80
2018-05-23T01:45:13.144Z,11.60
2018-05-23T01:47:40.584Z,13.07
2018-05-23T01:50:07.989Z,13.10
2018-05-23T01:52:35.409Z,12.93
2018-05-23T01:55:02.841Z,12.93
2018-05-23T01:57:30.268Z,12.63
2018-05-23T01:59:57.679Z,11.80
2018-05-23T02:02:25.100Z,10.47
2018-05-23T02:04:52.519Z,12.43
2018-05-23T02:07:19.936Z,12.33
2018-05-23T02:09:47.359Z,11.57
2018-05-23T02:12:14.780Z,11.67
2018-05-23T02:14:42.200Z,11.53
2018-05-23T02:17:09.631Z,11.57
2018-05-23T02:19:37.064Z,12.23
2018-05-23T02:22:04.484Z,13.17
2018-05-23T02:24:31.912Z,13.30
2018-05-23T02:26:59.339Z,12.70
2018-05-23T02:29:26.752Z,12.43
2018-05-23T02:31:54.164Z,13.17
2018-05-23T02:34:21.592Z,13.60
2018-05-23T02:36:49.009Z,12.43
2018-05-23T02:39:16.424Z,12.23
2018-05-23T02:41:43.856Z,11.23
2018-05-23T02:44:11.272Z,12.20
2018-05-23T02:46:38.709Z,11.27
2018-05-23T02:49:06.136Z,12.70
2018-05-23T02:51:33.557Z,11.23
2018-05-23T02:54:00.976Z,12.27
2018-05-23T02:56:28.484Z,11.73
2018-05-23T02:58:55.892Z,11.63
2018-05-23T03:01:23.396Z,12.23
2018-05-23T03:03:50.814Z,13.77
2018-05-23T03:06:18.233Z,11.83
2018-05-23T03:08:45.661Z,12.57
2018-05-23T03:11:13.074Z,12.83
2018-05-23T03:13:40.493Z,11.30
2018-05-23T03:16:07.919Z,11.90
2018-05-23T03:18:35.339Z,13.77
2018-05-23T03:21:02.752Z,12.90
2018-05-23T03:23:30.188Z,13.37
2018-05-23T03:25:57.609Z,13.20
2018-05-23T03:28:25.017Z,12.70
2018-05-23T03:30:52.769Z,12.33
2018-05-23T03:33:20.184Z,12.90
2018-05-23T03:35:47.592Z,13.50
2018-05-23T03:38:15.013Z,13.27
2018-05-23T03:40:42.427Z,13.53
2018-05-23T03:43:09.861Z,13.77
2018-05-23T03:45:37.284Z,13.23
2018-05-23T03:48:04.696Z,13.03
2018-05-23T03:50:32.524Z,12.70
2018-05-23T03:52:59.933Z,11.40
2018-05-23T03:55:27.348Z,11.80
2018-05-23T03:57:54.779Z,12.37
2018-05-23T04:00:34.049Z,13.17
2018-05-23T04:03:13.626Z,13.43
2018-05-23T04:05:53.167Z,12.47
2018-05-23T04:08:20.589Z,12.90
2018-05-23T04:10:48.018Z,14.70
2018-05-23T04:13:15.435Z,14.13
2018-05-23T04:15:42.851Z,13.73
2018-05-23T04:18:10.543Z,12.50
2018-05-23T04:20:37.943Z,14.97
2018-05-23T04:23:05.361Z,13.90
2018-05-23T04:25:32.846Z,13.70
2018-05-23T04:28:00.303Z,13.80
2018-05-23T04:30:27.710Z,13.33
2018-05-23T04:32:55.134Z,12.80
2018-05-23T04:35:22.548Z,12.03
2018-05-23T04:37:49.968Z,14.37
2018-05-23T04:40:17.401Z,13.27
2018-05-23T04:42:44.841Z,12.33
2018-05-23T04:45:12.266Z,12.37
2018-05-23T04:47:39.713Z,12.80
2018-05-23T04:50:07.130Z,12.03
2018-05-23T04:52:34.544Z,11.53
2018-05-23T04:55:01.968Z,11.77
2018-05-23T04:57:29.396Z,11.33
2018-05-23T04:59:56.812Z,11.27
2018-05-23T05:02:24.256Z,12.60
2018-05-23T05:04:51.672Z,11.80
2018-05-23T05:07:19.093Z,12.60
2018-05-23T05:09:46.572Z,11.47
2018-05-23T05:12:13.985Z,10.67
2018-05-23T05:14:41.396Z,10.70
2018-05-23T05:17:09.098Z,11.80
2018-05-23T05:19:36.524Z,12.17
2018-05-23T05:22:03.937Z,11.30
2018-05-23T05:24:31.659Z,10.43
2018-05-23T05:26:59.064Z,11.87
2018-05-23T05:29:26.484Z,10.90
2018-05-23T05:31:53.967Z,10.73
2018-05-23T05:34:21.356Z,10.43
2018-05-23T05:36:48.752Z,10.50
2018-05-23T05:39:16.183Z,10.30
2018-05-23T05:41:43.604Z,10.80
2018-05-23T05:44:11.036Z,10.70
2018-05-23T05:46:38.629Z,9.97
2018-05-23T05:49:06.056Z,10.00
2018-05-23T05:51:33.486Z,10.87
2018-05-23T05:54:00.933Z,10.10
2018-05-23T05:56:28.386Z,10.00
2018-05-23T05:58:55.787Z,10.47
2018-05-23T06:01:23.193Z,10.07
2018-05-23T06:03:50.641Z,9.70
2018-05-23T06:06:18.292Z,8.87
2018-05-23T06:08:45.706Z,8.90
2018-05-23T06:11:13.124Z,8.50
2018-05-23T06:13:40.564Z,7.40
2018-05-23T06:16:07.968Z,7.60
2018-05-23T06:18:35.403Z,7.78
2018-05-23T06:21:02.830Z,7.87
2018-05-23T06:23:30.240Z,7.68
2018-05-23T06:25:57.965Z,6.85
2018-05-23T06:28:25.383Z,7.03
2018-05-23T06:30:52.789Z,7.55
2018-05-23T06:33:20.563Z,7.28
2018-05-23T06:35:47.982Z,6.50
2018-05-23T06:38:15.396Z,6.62
2018-05-23T06:40:42.955Z,6.40
2018-05-23T06:43:10.379Z,5.97
2018-05-23T06:45:37.776Z,6.47
2018-05-23T06:48:05.209Z,6.47
2018-05-23T06:50:32.624Z,6.22
2018-05-23T06:53:00.025Z,6.95
2018-05-23T06:55:27.475Z,6.47
2018-05-23T06:57:54.883Z,7.20
2018-05-23T07:00:22.286Z,6.53
2018-05-23T07:02:49.882Z,6.43
2018-05-23T07:05:17.290Z,7.00
2018-05-23T07:07:44.702Z,6.72
2018-05-23T07:10:12.263Z,8.00
2018-05-23T07:12:39.669Z,7.60
2018-05-23T07:15:07.079Z,7.62
2018-05-23T07:17:34.508Z,7.12
2018-05-23T07:20:01.953Z,6.35
2018-05-23T07:22:29.388Z,7.07
2018-05-23T07:24:56.788Z,6.00
2018-05-23T07:27:24.188Z,6.05
2018-05-23T07:29:51.640Z,6.22
2018-05-23T07:32:19.211Z,6.60
2018-05-23T07:34:46.643Z,6.80
2018-05-23T07:37:14.061Z,5.82
2018-05-23T07:39:41.493Z,6.97
2018-05-23T07:42:08.900Z,5.87
2018-05-23T07:44:36.321Z,5.80
2018-05-23T07:47:03.731Z,5.68
2018-05-23T07:49:31.174Z,5.20
2018-05-23T07:51:58.576Z,5.10
2018-05-23T07:54:26.244Z,5.55
2018-05-23T07:56:53.672Z,5.05
2018-05-23T07:59:21.089Z,5.37
2018-05-23T08:01:48.519Z,5.15
2018-05-23T08:04:15.935Z,5.30
2018-05-23T08:06:43.507Z,5.12
2018-05-23T08:09:10.909Z,5.07
2018-05-23T08:11:38.325Z,4.60
2018-05-23T08:14:05.754Z,4.93
2018-05-23T08:16:33.164Z,4.70
2018-05-23T08:19:00.591Z,5.03
2018-05-23T08:21:28.024Z,5.32
2018-05-23T08:23:55.692Z,4.72
2018-05-23T08:26:23.217Z,5.57
2018-05-23T08:28:50.569Z,5.10
2018-05-23T08:31:17.992Z,5.28
2018-05-23T08:33:45.406Z,4.62
2018-05-23T08:36:12.979Z,4.62
2018-05-23T08:38:40.473Z,4.25
2018-05-23T08:41:07.840Z,4.75
2018-05-23T08:43:35.280Z,4.90
2018-05-23T08:46:02.726Z,5.05
2018-05-23T08:48:30.452Z,5.68
2018-05-23T08:50:57.855Z,5.68
2018-05-23T08:53:25.261Z,5.90
2018-05-23T08:55:52.684Z,5.37
2018-05-23T08:58:20.089Z,5.75
2018-05-23T09:00:47.500Z,5.43
2018-05-23T09:03:14.924Z,6.22
2018-05-23T09:05:42.325Z,5.85
2018-05-23T09:08:09.736Z,5.68
2018-05-23T09:10:37.177Z,5.85
2018-05-23T09:13:04.592Z,6.10
2018-05-23T09:15:32.025Z,5.60
2018-05-23T09:17:59.436Z,5.85
2018-05-23T09:20:26.857Z,5.37
2018-05-23T09:22:54.436Z,5.78
2018-05-23T09:25:21.943Z,5.97
2018-05-23T09:27:49.275Z,6.20
2018-05-23T09:30:16.967Z,6.40
2018-05-23T09:32:44.444Z,5.82
2018-05-23T09:35:11.865Z,5.75
2018-05-23T09:37:39.301Z,6.25
2018-05-23T09:40:06.732Z,6.15
2018-05-23T09:42:34.139Z,5.85
2018-05-23T09:45:01.564Z,5.75
2018-05-23T09:47:28.989Z,5.18
2018-05-23T09:49:56.517Z,6.10
2018-05-23T09:52:24.175Z,5.90
2018-05-23T09:54:51.596Z,6.00
2018-05-23T09:57:19.002Z,6.37
2018-05-23T09:59:46.491Z,5.60
2018-05-23T10:02:13.891Z,6.20
2018-05-23T10:04:41.295Z,6.12
2018-05-23T10:07:08.741Z,5.95
2018-05-23T10:09:36.223Z,5.70
2018-05-23T10:12:03.617Z,6.20
2018-05-23T10:14:31.196Z,6.07
2018-05-23T10:16:58.609Z,6.28
2018-05-23T10:19:26.083Z,6.57
2018-05-23T10:21:53.522Z,6.25
2018-05-23T10:24:21.012Z,5.75
2018-05-23T10:26:48.899Z,5.78
2018-05-23T10:29:16.460Z,5.90
2018-05-23T10:31:43.899Z,5.05
2018-05-23T10:34:11.319Z,6.55
2018-05-23T10:36:38.776Z,5.45
2018-05-23T10:39:06.204Z,6.10
2018-05-23T10:41:33.576Z,5.45
2018-05-23T10:44:01.371Z,6.15
2018-05-23T10:46:28.776Z,5.87
2018-05-23T10:48:56.195Z,5.57
2018-05-23T10:51:23.656Z,6.00
2018-05-23T10:53:51.091Z,5.72
2018-05-23T10:56:18.467Z,6.43
2018-05-23T10:58:45.889Z,5.45
2018-05-23T11:01:13.299Z,5.70
2018-05-23T11:03:40.877Z,6.00
2018-05-23T11:06:08.288Z,5.78
2018-05-23T11:08:35.704Z,6.05
2018-05-23T11:11:03.120Z,6.03
2018-05-23T11:13:30.542Z,5.20
2018-05-23T11:15:58.023Z,5.35
2018-05-23T11:18:25.447Z,4.55
2018-05-23T11:20:52.859Z,4.80
2018-05-23T11:23:20.290Z,5.30
2018-05-23T11:25:47.691Z,5.07
2018-05-23T11:28:15.108Z,4.82
2018-05-23T11:30:42.529Z,5.15
2018-05-23T11:33:09.955Z,5.05
2018-05-23T11:35:37.357Z,5.00
2018-05-23T11:38:04.785Z,5.35
2018-05-23T11:40:32.205Z,4.80
2018-05-23T11:42:59.631Z,5.22
2018-05-23T11:45:27.053Z,4.22
2018-05-23T11:47:54.511Z,4.57
2018-05-23T11:50:22.272Z,5.20
2018-05-23T11:52:49.687Z,4.57
2018-05-23T11:55:17.107Z,4.10
2018-05-23T11:57:44.553Z,4.32
2018-05-23T12:00:11.964Z,5.10
2018-05-23T12:02:39.401Z,4.70
2018-05-23T12:05:06.842Z,4.28
2018-05-23T12:07:34.256Z,4.40
2018-05-23T12:10:01.707Z,4.28
2018-05-23T12:12:29.111Z,4.65
2018-05-23T12:14:56.539Z,4.45
2018-05-23T12:17:23.419Z,4.80
2018-05-23T12:19:50.820Z,4.75
2018-05-23T12:22:18.247Z,4.90
2018-05-23T12:24:45.664Z,4.00
2018-05-23T12:27:13.081Z,4.62
2018-05-23T12:29:40.512Z,4.70
2018-05-23T12:32:07.937Z,4.68
2018-05-23T12:34:35.360Z,4.25
2018-05-23T12:37:02.913Z,4.20
2018-05-23T12:39:30.348Z,4.22
2018-05-23T12:41:57.759Z,4.80
2018-05-23T12:44:25.224Z,4.50
2018-05-23T12:46:52.616Z,4.50
2018-05-23T12:49:20.032Z,4.35
2018-05-23T12:51:47.473Z,4.32
2018-05-23T12:54:14.884Z,4.32
2018-05-23T12:56:42.371Z,4.62
2018-05-23T12:59:09.769Z,4.53
2018-05-23T13:01:37.175Z,4.15
2018-05-23T13:04:04.620Z,4.60
2018-05-23T13:06:32.026Z,4.70
2018-05-23T13:08:59.438Z,3.95
2018-05-23T13:11:26.843Z,4.00
2018-05-23T13:13:54.279Z,4.22
2018-05-23T13:16:21.687Z,4.53
2018-05-23T13:18:49.104Z,4.22
2018-05-23T13:21:16.511Z,4.80
2018-05-23T13:23:43.952Z,4.45
2018-05-23T13:26:11.383Z,4.10
2018-05-23T13:28:38.796Z,3.80
2018-05-23T13:31:06.212Z,3.92
2018-05-23T13:33:33.632Z,4.47
2018-05-23T13:36:01.064Z,3.92
2018-05-23T13:38:28.480Z,4.00
2018-05-23T13:40:55.905Z,4.68
2018-05-23T13:43:23.320Z,4.60
2018-05-23T13:45:50.741Z,4.62
2018-05-23T13:48:18.171Z,4.10
2018-05-23T13:50:45.585Z,3.78
2018-05-23T13:53:12.995Z,4.28
2018-05-23T13:55:40.417Z,3.85
2018-05-23T13:58:07.835Z,3.75
2018-05-23T14:00:35.245Z,3.90
2018-05-23T14:03:02.672Z,3.95
2018-05-23T14:05:30.083Z,4.93
2018-05-23T14:07:57.504Z,3.97
2018-05-23T14:10:24.924Z,3.62
2018-05-23T14:12:52.395Z,4.07
2018-05-23T14:15:19.808Z,3.65
2018-05-23T14:17:47.286Z,4.43
2018-05-23T14:20:14.708Z,3.60
2018-05-23T14:22:42.158Z,3.87
2018-05-23T14:25:09.559Z,3.75
2018-05-23T14:27:36.971Z,3.70
2018-05-23T14:30:04.423Z,3.80
2018-05-23T14:32:31.847Z,4.20
2018-05-23T14:34:59.269Z,4.40
2018-05-23T14:37:26.674Z,3.35
2018-05-23T14:39:54.106Z,3.50
2018-05-23T14:42:21.512Z,3.62
2018-05-23T14:44:48.981Z,4.00
2018-05-23T14:47:16.427Z,3.55
2018-05-23T14:49:43.844Z,3.70
2018-05-23T14:52:12.063Z,3.50
2018-05-23T14:54:39.476Z,3.97
2018-05-23T14:57:06.880Z,3.78
2018-05-23T14:59:34.303Z,3.70
2018-05-23T15:02:01.711Z,3.70
2018-05-23T15:04:29.135Z,3.50
2018-05-23T15:06:56.561Z,3.90
2018-05-23T15:09:23.990Z,3.67
2018-05-23T15:11:51.384Z,4.03
2018-05-23T15:14:19.243Z,3.42
2018-05-23T15:16:47.368Z,3.42
2018-05-23T15:19:14.776Z,3.40
2018-05-23T15:21:42.199Z,3.33
2018-05-23T15:24:09.602Z,3.58
2018-05-23T15:26:37.228Z,4.00
2018-05-23T15:29:05.097Z,4.00
2018-05-23T15:31:32.874Z,3.62
2018-05-23T15:34:00.176Z,3.62
2018-05-23T15:36:27.594Z,4.05
2018-05-23T15:38:55.002Z,4.22
2018-05-23T15:41:22.724Z,3.62
2018-05-23T15:43:50.281Z,4.00
2018-05-23T15:46:17.691Z,3.75
2018-05-23T15:48:45.108Z,3.65
2018-05-23T15:51:12.565Z,3.78
2018-05-23T15:53:39.924Z,3.70
2018-05-23T15:56:07.358Z,4.40
2018-05-23T15:58:34.762Z,4.50
2018-05-23T16:01:02.179Z,3.90
2018-05-23T16:03:29.594Z,3.65
2018-05-23T16:05:57.028Z,4.03
2018-05-23T16:08:24.456Z,3.92
2018-05-23T16:10:51.875Z,3.87
2018-05-23T16:13:19.321Z,3.85
2018-05-23T16:15:46.736Z,4.25
2018-05-23T16:18:14.174Z,4.22
2018-05-23T16:20:41.613Z,4.45
2018-05-23T16:23:09.004Z,4.45
2018-05-23T16:25:36.571Z,3.67
2018-05-23T16:28:03.983Z,4.20
2018-05-23T16:30:31.430Z,4.10
2018-05-23T16:32:58.862Z,3.75
2018-05-23T16:35:26.269Z,3.95
2018-05-23T16:37:53.694Z,3.95
2018-05-23T16:40:21.105Z,4.32
2018-05-23T16:42:48.564Z,4.00
2018-05-23T16:45:15.988Z,4.70
2018-05-23T16:47:43.401Z,4.32
2018-05-23T16:50:10.828Z,4.12
2018-05-23T16:52:38.261Z,4.45
2018-05-23T16:55:05.691Z,4.47
2018-05-23T16:57:33.100Z,4.22
2018-05-23T17:00:00.544Z,5.07
2018-05-23T17:02:27.960Z,4.30
2018-05-23T17:04:55.368Z,4.03
2018-05-23T17:07:22.780Z,4.05
2018-05-23T17:09:50.191Z,4.70
2018-05-23T17:12:17.609Z,3.90
2018-05-23T17:14:45.020Z,3.87
2018-05-23T17:17:12.439Z,4.07
2018-05-23T17:19:39.870Z,4.53
2018-05-23T17:22:07.320Z,4.03
2018-05-23T17:24:34.737Z,4.80
2018-05-23T17:27:02.145Z,4.10
2018-05-23T17:29:29.563Z,4.07
2018-05-23T17:31:56.997Z,4.47
2018-05-23T17:34:24.411Z,3.92
2018-05-23T17:36:51.832Z,4.20
2018-05-23T17:39:19.255Z,4.30
2018-05-23T17:41:46.680Z,4.00
2018-05-23T17:44:14.207Z,4.05
2018-05-23T17:46:41.631Z,3.65
2018-05-23T17:49:09.040Z,4.07
2018-05-23T17:51:36.597Z,3.65
2018-05-23T17:54:04.028Z,3.60
2018-05-23T17:56:31.437Z,3.65
2018-05-23T17:58:58.873Z,4.40
2018-05-23T18:01:26.297Z,4.03
2018-05-23T18:03:53.698Z,4.28
2018-05-23T18:06:21.199Z,3.80
2018-05-23T18:08:48.607Z,3.83
2018-05-23T18:11:16.071Z,3.80
2018-05-23T18:13:43.433Z,4.22
2018-05-23T18:16:10.851Z,4.20
2018-05-23T18:18:38.291Z,4.32
2018-05-23T18:21:05.716Z,4.25
2018-05-23T18:23:33.173Z,3.83
2018-05-23T18:26:00.585Z,3.92
2018-05-23T18:28:28.024Z,4.43
2018-05-23T18:30:55.438Z,3.87
2018-05-23T18:33:22.864Z,4.25
2018-05-23T18:35:50.281Z,3.72
2018-05-23T18:38:17.787Z,4.53
2018-05-23T18:40:45.200Z,3.92
2018-05-23T18:43:12.657Z,4.07
2018-05-23T18:45:40.064Z,3.92
2018-05-23T18:48:07.477Z,4.10
2018-05-23T18:50:34.915Z,4.20
2018-05-23T18:53:02.330Z,4.90
2018-05-23T18:55:29.812Z,4.12
2018-05-23T18:57:57.228Z,3.85
2018-05-23T19:00:24.628Z,3.53
2018-05-23T19:02:52.049Z,3.90
2018-05-23T19:05:19.676Z,4.03
2018-05-23T19:07:47.040Z,3.70
2018-05-23T19:10:14.465Z,4.68
2018-05-23T19:12:41.888Z,4.80
2018-05-23T19:15:09.316Z,4.00
2018-05-23T19:17:36.755Z,4.00
2018-05-23T19:20:04.199Z,4.87
2018-05-23T19:22:31.616Z,4.50
2018-05-23T19:24:59.037Z,4.28
2018-05-23T19:27:26.632Z,4.45
2018-05-23T19:29:54.049Z,4.80
2018-05-23T19:32:21.481Z,5.07
2018-05-23T19:34:48.928Z,4.93
2018-05-23T19:37:16.352Z,3.97
2018-05-23T19:39:43.845Z,4.22
2018-05-23T19:42:11.190Z,4.23
2018-05-23T19:44:38.623Z,4.00
2018-05-23T19:47:06.028Z,4.00
2018-05-23T19:49:33.755Z,3.83
2018-05-23T19:52:01.161Z,4.25
2018-05-23T19:54:28.569Z,3.70
2018-05-23T19:56:56.219Z,3.77
2018-05-23T19:59:23.638Z,3.50
2018-05-23T20:01:51.059Z,3.80
2018-05-23T20:04:18.877Z,3.53
2018-05-23T20:06:46.286Z,4.40
2018-05-23T20:09:13.740Z,3.43
2018-05-23T20:11:41.167Z,3.00
2018-05-23T20:14:08.662Z,3.50
2018-05-23T20:16:36.022Z,2.90
2018-05-23T20:19:03.432Z,3.40
2018-05-23T20:21:30.983Z,3.20
2018-05-23T20:23:58.404Z,3.57
2018-05-23T20:26:25.835Z,3.37
2018-05-23T20:28:53.492Z,3.10
2018-05-23T20:31:20.913Z,3.13
2018-05-23T20:33:48.368Z,2.93
2018-05-23T20:36:15.785Z,2.73
2018-05-23T20:38:43.193Z,2.73
2018-05-23T20:41:10.624Z,2.97
2018-05-23T20:43:38.032Z,3.03
2018-05-23T20:46:05.445Z,2.90
2018-05-23T20:48:32.876Z,2.87
2018-05-23T20:51:00.292Z,3.23
2018-05-23T20:53:27.714Z,3.23
2018-05-23T20:55:55.129Z,2.73
2018-05-23T20:58:22.635Z,2.90
2018-05-23T21:00:49.972Z,2.83
2018-05-23T21:03:17.486Z,3.00
2018-05-23T21:05:44.989Z,3.07
2018-05-23T21:08:12.361Z,2.93
2018-05-23T21:10:39.765Z,2.93
2018-05-23T21:13:07.189Z,2.67
2018-05-23T21:15:34.632Z,3.03
2018-05-23T21:18:02.028Z,2.80
2018-05-23T21:20:29.449Z,3.10
2018-05-23T21:22:56.906Z,3.23
2018-05-23T21:25:24.330Z,2.80
2018-05-23T21:27:51.839Z,3.17
2018-05-23T21:30:19.223Z,3.23
2018-05-23T21:32:46.649Z,2.70
2018-05-23T21:35:14.052Z,3.10
2018-05-23T21:37:41.812Z,3.00
2018-05-23T21:40:09.215Z,3.03
2018-05-23T21:42:36.629Z,3.10
2018-05-23T21:45:04.054Z,3.00
2018-05-23T21:47:31.465Z,3.03
2018-05-23T21:49:58.908Z,3.20
2018-05-23T21:52:26.346Z,3.23
2018-05-23T21:54:53.847Z,3.40
2018-05-23T21:57:21.258Z,3.10
2018-05-23T21:59:48.714Z,2.97
2018-05-23T22:02:16.120Z,3.00
2018-05-23T22:04:43.561Z,3.10
2018-05-23T22:07:10.965Z,2.60
2018-05-23T22:09:38.393Z,2.70
2018-05-23T22:12:05.842Z,2.93
2018-05-23T22:14:33.246Z,2.73
2018-05-23T22:17:00.919Z,3.23
2018-05-23T22:19:28.328Z,2.90
2018-05-23T22:21:55.756Z,3.00
2018-05-23T22:24:23.270Z,3.53
2018-05-23T22:26:50.633Z,2.57
2018-05-23T22:29:18.064Z,2.70
2018-05-23T22:31:45.503Z,2.70
2018-05-23T22:34:12.903Z,2.70
2018-05-23T22:36:40.484Z,2.40
2018-05-23T22:39:07.891Z,2.50
2018-05-23T22:41:35.325Z,2.80
2018-05-23T22:44:02.825Z,3.43
2018-05-23T22:46:30.238Z,3.07
2018-05-23T22:48:57.658Z,2.77
2018-05-23T22:51:25.372Z,3.30
2018-05-23T22:53:52.784Z,2.87
2018-05-23T22:56:20.190Z,2.73
2018-05-23T22:58:47.611Z,2.97
2018-05-23T23:01:15.027Z,2.60
2018-05-23T23:03:42.442Z,2.83
2018-05-23T23:06:09.843Z,2.50
2018-05-23T23:08:37.334Z,3.10
2018-05-23T23:11:04.757Z,2.47
2018-05-23T23:13:32.161Z,2.57
2018-05-23T23:15:59.572Z,2.83
2018-05-23T23:18:27.167Z,2.70
2018-05-23T23:20:54.569Z,2.73
2018-05-23T23:23:21.983Z,2.67
2018-05-23T23:25:49.765Z,2.33
2018-05-23T23:28:17.181Z,2.40
2018-05-23T23:30:44.590Z,2.43
2018-05-23T23:33:12.018Z,2.37
2018-05-23T23:35:39.504Z,2.47
2018-05-23T23:38:06.931Z,2.57
2018-05-23T23:40:34.339Z,2.50
2018-05-23T23:43:01.749Z,2.80
2018-05-23T23:45:29.528Z,2.27
2018-05-23T23:47:56.948Z,2.17
2018-05-23T23:50:24.365Z,2.47
2018-05-23T23:52:52.158Z,2.50
2018-05-23T23:55:19.564Z,3.03
2018-05-23T23:57:46.993Z,2.40
